Time;durP1;ratioP1;P1;durP2;ratioP2;P2;SDS_P1;SDS_P2;PMS_P1;PMS_P2;Temp;Humidity;BMP_temperature;BMP_pressure;BME280_temperature;BME280_humidity;BME280_pressure;Samples;Min_cycle;Max_cycle;Signal;HPM_P1;HPM_P2
2023/03/10 00:00:21;;;;;;;4.05;2.45;;;;;;;12.41;66.17;94294.59;4976508;28;20248;-68
2023/03/10 00:02:49;;;;;;;4.47;2.05;;;;;;;12.33;67.07;94304.38;4975905;28;20575;-69
2023/03/10 00:05:16;;;;;;;2.75;2.03;;;;;;;12.26;66.62;94302.13;4974078;28;20693;-68
2023/03/10 00:07:43;;;;;;;2.05;1.92;;;;;;;12.32;66.58;94300.19;4973956;28;20547;-68
2023/03/10 00:10:11;;;;;;;1.83;1.63;;;;;;;12.33;66.86;94312.00;4975056;28;20682;-69
2023/03/10 00:12:38;;;;;;;1.80;1.70;;;;;;;12.30;66.92;94318.09;4975425;28;20845;-68
2023/03/10 00:15:06;;;;;;;1.92;1.70;;;;;;;12.36;66.56;94322.88;4972538;28;20304;-69
2023/03/10 00:17:34;;;;;;;2.80;2.08;;;;;;;12.28;67.26;94317.34;4973782;28;20333;-69
2023/03/10 00:20:01;;;;;;;2.63;1.80;;;;;;;12.23;67.54;94322.66;4973798;28;20513;-67
2023/03/10 00:22:28;;;;;;;1.80;1.70;;;;;;;12.16;67.60;94325.59;4971957;28;21006;-69
2023/03/10 00:24:54;;;;;;;6.15;2.33;;;;;;;12.10;68.03;94323.41;4973229;28;20312;-69
2023/03/10 00:27:21;;;;;;;4.47;3.08;;;;;;;12.16;68.14;94321.34;4973213;28;20887;-68
2023/03/10 00:29:51;;;;;;;2.90;2.53;;;;;;;12.22;67.83;94321.03;4972847;28;20691;-69
2023/03/10 00:32:17;;;;;;;3.88;2.90;;;;;;;12.21;68.25;94324.47;4972631;28;20757;-69
2023/03/10 00:34:45;;;;;;;6.93;4.10;;;;;;;12.17;68.45;94319.59;4971985;28;20291;-68
2023/03/10 00:37:12;;;;;;;5.88;3.80;;;;;;;12.09;68.91;94314.94;4971894;28;20291;-70
2023/03/10 00:39:39;;;;;;;8.55;3.95;;;;;;;12.10;69.03;94308.94;4970909;28;20232;-69
2023/03/10 00:42:06;;;;;;;8.73;3.88;;;;;;;12.11;69.26;94295.31;4973766;28;20228;-69
2023/03/10 00:44:32;;;;;;;5.50;3.35;;;;;;;12.06;69.98;94294.72;4972127;28;20351;-69
2023/03/10 00:46:59;;;;;;;3.55;3.15;;;;;;;11.97;70.34;94291.81;4972382;28;20312;-69
2023/03/10 00:49:26;;;;;;;4.45;2.97;;;;;;;11.84;70.99;94289.91;4974256;28;20715;-68
2023/03/10 00:51:54;;;;;;;2.17;2.00;;;;;;;11.92;71.04;94297.94;4975019;28;20288;-68
2023/03/10 00:54:20;;;;;;;6.45;2.42;;;;;;;12.00;70.44;94284.00;4972477;28;20570;-69
2023/03/10 00:56:47;;;;;;;2.35;2.20;;;;;;;11.97;70.79;94285.00;4973840;28;20292;-68
2023/03/10 00:59:13;;;;;;;3.50;2.10;;;;;;;12.01;70.63;94286.47;4972449;28;20255;-68
2023/03/10 01:01:41;;;;;;;2.53;1.95;;;;;;;12.00;71.02;94287.38;4974157;28;20369;-69
2023/03/10 01:04:12;;;;;;;2.53;2.33;;;;;;;12.00;70.95;94291.66;4973916;28;20328;-69
2023/03/10 01:06:39;;;;;;;2.00;1.90;;;;;;;12.08;70.95;94287.00;4975013;28;20319;-70
2023/03/10 01:09:07;;;;;;;1.77;1.67;;;;;;;12.04;70.71;94280.41;4973310;28;20241;-69
2023/03/10 01:11:34;;;;;;;2.45;1.60;;;;;;;12.01;70.76;94296.66;4974293;28;20208;-69
2023/03/10 01:14:03;;;;;;;2.15;1.95;;;;;;;12.00;71.12;94292.47;4975608;28;20809;-68
2023/03/10 01:16:30;;;;;;;2.08;1.88;;;;;;;12.01;71.65;94289.03;4972832;28;20444;-69
2023/03/10 01:18:57;;;;;;;2.63;1.48;;;;;;;12.06;71.03;94279.44;4971329;28;20296;-70
2023/03/10 01:21:26;;;;;;;1.83;1.73;;;;;;;12.14;71.11;94271.38;4978456;28;20421;-70
2023/03/10 01:23:53;;;;;;;2.95;2.15;;;;;;;12.14;71.02;94276.47;4976225;28;20282;-69
2023/03/10 01:26:21;;;;;;;1.92;1.65;;;;;;;12.07;71.33;94276.00;4977059;28;20241;-70
2023/03/10 01:28:48;;;;;;;1.80;1.70;;;;;;;12.04;71.33;94273.59;4975561;28;20319;-69
2023/03/10 01:31:16;;;;;;;1.67;1.58;;;;;;;12.04;71.53;94271.03;4976791;28;20415;-70
2023/03/10 01:33:44;;;;;;;1.75;1.50;;;;;;;12.10;71.04;94270.75;4977522;28;20233;-69
2023/03/10 01:36:14;;;;;;;1.75;1.65;;;;;;;12.10;71.06;94275.81;4976862;28;20213;-69
2023/03/10 01:38:42;;;;;;;2.13;1.98;;;;;;;12.02;71.32;94277.13;4977556;28;20220;-70
2023/03/10 01:41:09;;;;;;;3.03;1.70;;;;;;;11.92;71.24;94267.41;4975472;28;20706;-69
2023/03/10 01:43:42;;;;;;;2.75;1.70;;;;;;;11.96;71.28;94278.25;4978428;28;20233;-70
2023/03/10 01:46:35;;;;;;;3.20;1.88;;;;;;;12.04;70.81;94268.50;4976611;28;20314;-70
2023/03/10 01:49:06;;;;;;;3.45;1.50;;;;;;;12.01;70.97;94291.56;4975752;28;20334;-69
2023/03/10 01:51:35;;;;;;;2.28;2.08;;;;;;;11.96;71.30;94293.53;4977548;28;20245;-69
2023/03/10 01:54:06;;;;;;;2.92;1.40;;;;;;;12.05;70.78;94284.59;4977534;28;20752;-69
2023/03/10 01:56:33;;;;;;;1.85;1.75;;;;;;;12.11;70.58;94292.75;4977210;28;20589;-70
2023/03/10 01:59:01;;;;;;;3.08;1.60;;;;;;;11.90;71.18;94291.28;4977308;28;20324;-69
2023/03/10 02:01:27;;;;;;;1.98;1.85;;;;;;;11.86;71.34;94292.38;4977565;28;20753;-69
2023/03/10 02:04:00;;;;;;;2.90;1.75;;;;;;;11.82;71.61;94298.50;4974871;28;20304;-70
2023/03/10 02:06:27;;;;;;;2.03;1.90;;;;;;;11.76;71.57;94286.06;4976817;28;20323;-70
2023/03/10 02:08:57;;;;;;;2.20;2.00;;;;;;;11.64;72.13;94291.75;4975995;28;20675;-70
2023/03/10 02:11:24;;;;;;;2.42;1.83;;;;;;;11.55;72.21;94287.94;4976710;28;20324;-69
2023/03/10 02:13:51;;;;;;;3.13;1.83;;;;;;;11.52;72.46;94290.63;4975630;28;20726;-70
2023/03/10 02:16:20;;;;;;;5.03;2.13;;;;;;;11.59;72.10;94289.44;4977621;28;20296;-70
2023/03/10 02:18:48;;;;;;;4.50;2.05;;;;;;;11.49;72.45;94299.25;4968204;28;20802;-70
2023/03/10 02:21:23;;;;;;;3.08;1.80;;;;;;;11.52;72.38;94293.19;4976488;28;20294;-69
2023/03/10 02:23:58;;;;;;;4.10;1.95;;;;;;;11.54;72.47;94289.66;4975987;28;20293;-70
2023/03/10 02:26:35;;;;;;;2.50;2.30;;;;;;;11.44;72.25;94296.09;4976646;28;20283;-69
2023/03/10 02:29:08;;;;;;;2.40;2.20;;;;;;;11.42;72.43;94297.91;4976082;28;20240;-70
2023/03/10 02:31:36;;;;;;;2.47;2.28;;;;;;;11.42;72.00;94305.53;4975267;28;20268;-70
2023/03/10 02:34:05;;;;;;;2.72;2.20;;;;;;;11.36;71.93;94300.75;4975304;28;21342;-69
2023/03/10 02:36:32;;;;;;;2.33;2.13;;;;;;;11.32;72.36;94291.63;4975633;28;20259;-69
2023/03/10 02:38:59;;;;;;;5.22;2.33;;;;;;;11.34;72.45;94294.09;4977029;28;20291;-69
2023/03/10 02:41:29;;;;;;;2.75;2.08;;;;;;;11.45;72.04;94296.91;4975426;28;20288;-69
2023/03/10 02:43:58;;;;;;;2.20;2.10;;;;;;;11.39;72.28;94292.94;4976325;28;20209;-70
2023/03/10 02:46:27;;;;;;;2.53;1.88;;;;;;;11.50;72.00;94300.91;4974977;28;20213;-70
2023/03/10 02:48:53;;;;;;;2.17;1.98;;;;;;;11.46;72.04;94286.69;4975971;28;20262;-69
2023/03/10 02:51:23;;;;;;;3.38;2.17;;;;;;;11.40;72.07;94304.78;4976445;28;20201;-70
2023/03/10 02:53:50;;;;;;;2.28;2.08;;;;;;;11.37;72.11;94288.88;4977056;28;20303;-70
2023/03/10 02:56:17;;;;;;;2.58;2.20;;;;;;;11.37;72.52;94289.69;4974550;28;20304;-69
2023/03/10 02:58:44;;;;;;;2.00;1.90;;;;;;;11.38;72.06;94295.59;4975875;28;20296;-70
2023/03/10 03:01:11;;;;;;;2.05;1.88;;;;;;;11.39;72.35;94298.03;4975915;28;20293;-69
2023/03/10 03:03:39;;;;;;;5.13;2.38;;;;;;;11.53;72.19;94310.09;4977296;28;20657;-68
2023/03/10 03:06:06;;;;;;;2.08;1.85;;;;;;;11.68;71.59;94303.41;4973512;28;20730;-69
2023/03/10 03:08:33;;;;;;;4.72;2.17;;;;;;;11.78;71.30;94299.56;4977285;28;20817;-68
2023/03/10 03:11:00;;;;;;;2.10;1.80;;;;;;;11.98;70.67;94296.81;4977729;28;20346;-68
2023/03/10 03:13:27;;;;;;;2.38;2.22;;;;;;;12.00;70.27;94294.19;4977884;28;20215;-70
2023/03/10 03:15:54;;;;;;;2.20;2.10;;;;;;;11.91;70.38;94292.94;4975417;28;20247;-70
2023/03/10 03:18:20;;;;;;;2.47;2.28;;;;;;;11.82;70.79;94290.88;4976400;28;20292;-70
2023/03/10 03:20:48;;;;;;;3.05;2.30;;;;;;;11.83;70.74;94289.97;4968350;28;20237;-70
2023/03/10 03:23:15;;;;;;;2.90;2.30;;;;;;;11.98;70.10;94280.72;4975597;28;20369;-70
2023/03/10 03:25:42;;;;;;;3.30;2.60;;;;;;;11.98;70.00;94286.63;4973784;28;20352;-70
2023/03/10 03:28:10;;;;;;;3.40;2.40;;;;;;;11.81;70.32;94276.50;4974349;28;20326;-70
2023/03/10 03:30:37;;;;;;;2.63;2.40;;;;;;;11.86;70.63;94272.81;4976424;28;20236;-70
2023/03/10 03:33:06;;;;;;;4.97;2.85;;;;;;;12.00;70.11;94274.66;4974471;28;21546;-70
2023/03/10 03:35:34;;;;;;;6.20;1.80;;;;;;;11.90;70.25;94278.56;4974553;28;20301;-70
2023/03/10 03:38:03;;;;;;;7.82;2.45;;;;;;;11.78;70.73;94279.19;4974986;28;20248;-70
2023/03/10 03:40:33;;;;;;;2.55;2.35;;;;;;;11.61;71.40;94282.56;4974560;28;20209;-69
2023/03/10 03:43:00;;;;;;;4.90;2.63;;;;;;;11.58;71.53;94278.44;4974337;28;20201;-69
2023/03/10 03:45:29;;;;;;;3.22;3.00;;;;;;;11.55;71.63;94288.78;4975500;28;20327;-69
2023/03/10 03:47:56;;;;;;;3.50;3.08;;;;;;;11.56;71.65;94289.59;4972958;28;21229;-69
2023/03/10 03:50:23;;;;;;;6.10;2.80;;;;;;;11.54;71.82;94297.31;4975962;28;20247;-69
2023/03/10 03:52:50;;;;;;;5.18;4.00;;;;;;;11.55;71.45;94303.22;4974704;28;20259;-70
2023/03/10 03:55:19;;;;;;;15.30;10.20;;;;;;;11.57;71.38;94297.16;4974293;28;20662;-69
2023/03/10 03:57:47;;;;;;;16.17;11.55;;;;;;;11.58;71.26;94293.72;4975018;28;20291;-69
2023/03/10 04:00:17;;;;;;;15.68;10.63;;;;;;;11.70;71.50;94292.25;4977341;28;20275;-69
2023/03/10 04:02:44;;;;;;;9.43;6.28;;;;;;;11.75;71.26;94285.22;4974464;28;20300;-69
2023/03/10 04:05:10;;;;;;;7.90;4.65;;;;;;;11.83;70.70;94285.69;4975709;28;20840;-70
2023/03/10 04:07:39;;;;;;;18.83;12.90;;;;;;;11.91;70.60;94290.38;4974418;28;20216;-69
2023/03/10 04:10:07;;;;;;;14.68;9.93;;;;;;;11.98;70.40;94296.00;4975216;28;20305;-70
2023/03/10 04:12:35;;;;;;;16.83;10.70;;;;;;;12.08;69.73;94290.38;4975097;28;20701;-69
2023/03/10 04:15:01;;;;;;;9.80;6.82;;;;;;;12.17;69.75;94284.78;4974280;28;20244;-68
2023/03/10 04:17:28;;;;;;;13.43;7.68;;;;;;;12.22;69.21;94282.81;4974644;28;20648;-69
2023/03/10 04:19:55;;;;;;;8.98;6.93;;;;;;;12.21;69.30;94283.72;4973530;28;20316;-69
2023/03/10 04:22:21;;;;;;;12.75;8.52;;;;;;;12.16;69.51;94280.59;4975116;28;20316;-69
2023/03/10 04:24:48;;;;;;;13.45;8.43;;;;;;;12.19;69.28;94267.69;4974555;28;20232;-70
2023/03/10 04:27:15;;;;;;;21.27;14.18;;;;;;;12.22;69.34;94269.25;4975053;28;20295;-69
2023/03/10 04:29:43;;;;;;;27.90;16.35;;;;;;;12.16;69.74;94269.56;4973788;28;20296;-69
2023/03/10 04:32:09;;;;;;;39.25;24.48;;;;;;;12.16;69.35;94270.41;4975703;28;20302;-69
2023/03/10 04:34:36;;;;;;;22.42;16.10;;;;;;;12.21;69.21;94272.69;4975064;28;20745;-69
2023/03/10 04:37:03;;;;;;;17.63;12.02;;;;;;;12.24;68.70;94268.28;4973426;28;20301;-69
2023/03/10 04:39:30;;;;;;;16.30;10.13;;;;;;;12.25;68.83;94262.28;4973824;28;20253;-69
2023/03/10 04:41:56;;;;;;;13.57;9.85;;;;;;;12.26;68.73;94266.47;4974473;28;20212;-68
2023/03/10 04:44:23;;;;;;;24.45;11.57;;;;;;;12.26;68.91;94255.47;4974036;28;20686;-68
2023/03/10 04:46:51;;;;;;;17.90;11.07;;;;;;;12.18;68.89;94262.69;4972390;28;20754;-69
2023/03/10 04:49:18;;;;;;;19.30;11.07;;;;;;;12.09;69.18;94258.91;4974029;28;20233;-69
2023/03/10 04:51:44;;;;;;;21.20;12.60;;;;;;;12.04;69.48;94255.78;4974462;28;20319;-71
2023/03/10 04:54:11;;;;;;;21.75;13.30;;;;;;;11.94;69.40;94249.50;4975862;28;20724;-68
2023/03/10 04:56:38;;;;;;;23.83;11.98;;;;;;;11.88;70.03;94249.81;4977683;28;20300;-68
2023/03/10 04:59:04;;;;;;;16.77;10.00;;;;;;;11.79;70.24;94260.47;4979241;28;20413;-69
2023/03/10 05:01:33;;;;;;;14.48;10.23;;;;;;;11.72;70.44;94248.91;4978457;28;20284;-70
2023/03/10 05:04:01;;;;;;;22.02;9.32;;;;;;;11.70;70.89;94255.81;4978656;28;20765;-69
2023/03/10 05:06:28;;;;;;;24.95;10.80;;;;;;;11.68;70.86;94245.69;4978760;28;20319;-69
2023/03/10 05:08:55;;;;;;;18.80;11.88;;;;;;;11.63;71.04;94234.13;4978008;28;20315;-69
2023/03/10 05:11:22;;;;;;;16.55;9.07;;;;;;;11.58;71.74;94236.91;4979663;28;20292;-68
2023/03/10 05:13:49;;;;;;;21.08;11.93;;;;;;;11.66;71.68;94236.50;4978561;28;20220;-70
2023/03/10 05:16:18;;;;;;;23.15;9.82;;;;;;;11.73;71.65;94232.75;4978176;28;20366;-68
2023/03/10 05:18:45;;;;;;;15.02;8.77;;;;;;;11.81;71.36;94233.22;4977549;28;20344;-70
2023/03/10 05:21:14;;;;;;;17.95;8.60;;;;;;;11.81;70.96;94228.13;4979445;28;20218;-69
2023/03/10 05:23:40;;;;;;;14.57;8.27;;;;;;;11.87;70.97;94225.28;4977859;28;20299;-70
2023/03/10 05:26:10;;;;;;;21.05;11.35;;;;;;;11.89;71.12;94229.34;4978301;28;20315;-70
2023/03/10 05:28:37;;;;;;;17.10;9.25;;;;;;;11.92;71.06;94223.28;4977451;28;20225;-70
2023/03/10 05:31:09;;;;;;;17.02;8.02;;;;;;;11.99;70.67;94232.25;4978615;28;20296;-70
2023/03/10 05:33:35;;;;;;;20.42;9.05;;;;;;;12.09;70.49;94215.63;4975040;28;20228;-69
2023/03/10 05:36:05;;;;;;;16.00;8.70;;;;;;;12.24;70.13;94224.16;4979499;28;20303;-69
2023/03/10 05:38:33;;;;;;;19.27;8.30;;;;;;;12.38;69.34;94223.41;4975738;28;20671;-70
2023/03/10 05:40:59;;;;;;;14.27;8.55;;;;;;;12.59;68.40;94212.06;4978835;28;20300;-69
2023/03/10 05:43:26;;;;;;;13.50;7.78;;;;;;;12.41;69.03;94218.97;4977712;28;20296;-69
2023/03/10 05:45:57;;;;;;;11.80;9.18;;;;;;;12.58;68.17;94216.34;4978574;28;20304;-69
2023/03/10 05:48:24;;;;;;;11.98;8.13;;;;;;;12.61;67.90;94215.34;4976389;28;21288;-69
2023/03/10 05:51:01;;;;;;;10.57;6.93;;;;;;;12.45;68.16;94214.53;4977626;28;20321;-71
2023/03/10 05:53:28;;;;;;;10.25;6.70;;;;;;;12.43;68.07;94208.69;4976695;28;20327;-70
2023/03/10 05:55:57;;;;;;;15.15;6.93;;;;;;;12.43;68.39;94211.25;4976251;28;20280;-72
2023/03/10 05:58:24;;;;;;;9.38;7.05;;;;;;;12.38;68.15;94195.38;4977231;28;20760;-70
2023/03/10 06:00:51;;;;;;;9.60;7.50;;;;;;;12.26;68.86;94207.88;4977824;28;20369;-70
2023/03/10 06:03:19;;;;;;;15.63;7.68;;;;;;;12.19;69.24;94214.19;4978084;28;20360;-70
2023/03/10 06:05:46;;;;;;;13.15;7.45;;;;;;;12.34;69.44;94219.41;4976970;28;20301;-70
2023/03/10 06:08:12;;;;;;;16.85;7.47;;;;;;;12.71;67.95;94216.47;4976518;28;20740;-70
2023/03/10 06:10:39;;;;;;;11.40;6.80;;;;;;;12.89;66.49;94215.44;4977008;28;20216;-69
2023/03/10 06:13:07;;;;;;;18.55;6.75;;;;;;;12.75;67.18;94222.22;4976402;28;20664;-70
2023/03/10 06:15:34;;;;;;;11.82;6.00;;;;;;;12.82;67.18;94234.56;4976983;28;20358;-70
2023/03/10 06:18:01;;;;;;;14.10;6.55;;;;;;;13.02;66.55;94230.06;4975036;28;20316;-69
2023/03/10 06:20:27;;;;;;;17.20;7.22;;;;;;;13.38;65.33;94212.69;4975846;28;20255;-70
2023/03/10 06:22:54;;;;;;;9.93;7.03;;;;;;;13.49;64.71;94220.56;4977601;28;20244;-70
2023/03/10 06:25:21;;;;;;;13.93;6.32;;;;;;;13.43;65.46;94231.09;4976786;28;20319;-71
2023/03/10 06:27:48;;;;;;;13.38;7.10;;;;;;;13.50;65.19;94224.75;4968430;28;20318;-69
2023/03/10 06:30:16;;;;;;;10.27;7.32;;;;;;;13.40;65.21;94222.81;4976663;28;20297;-70
2023/03/10 06:32:43;;;;;;;8.57;5.13;;;;;;;13.21;65.12;94230.69;4976195;28;20252;-70
2023/03/10 06:35:13;;;;;;;7.63;5.47;;;;;;;12.98;66.08;94220.94;4976785;28;20292;-70
2023/03/10 06:37:40;;;;;;;6.53;5.13;;;;;;;13.13;66.13;94217.53;4976737;28;20295;-69
2023/03/10 06:40:11;;;;;;;7.63;4.72;;;;;;;13.04;66.58;94230.81;4976884;28;20340;-70
2023/03/10 06:42:38;;;;;;;6.00;5.28;;;;;;;13.01;66.20;94223.31;4977134;28;20215;-68
2023/03/10 06:45:06;;;;;;;4.90;4.50;;;;;;;13.14;65.86;94224.25;4975932;28;20244;-70
2023/03/10 06:47:34;;;;;;;8.45;5.47;;;;;;;13.24;65.50;94230.53;4976061;28;20292;-71
2023/03/10 06:50:01;;;;;;;9.95;5.00;;;;;;;13.38;64.63;94230.56;4976771;28;20244;-69
2023/03/10 06:52:27;;;;;;;8.70;5.25;;;;;;;13.50;65.01;94226.47;4976490;28;20920;-70
2023/03/10 06:54:54;;;;;;;13.68;4.75;;;;;;;13.48;64.14;94234.22;4976649;28;20235;-68
2023/03/10 06:57:21;;;;;;;7.18;4.35;;;;;;;13.36;64.77;94229.03;4976294;28;20295;-70
2023/03/10 06:59:47;;;;;;;6.88;5.60;;;;;;;13.31;65.41;94231.84;4967968;28;20814;-70
2023/03/10 07:02:14;;;;;;;9.00;4.57;;;;;;;13.35;64.75;94223.09;4976402;28;20294;-72
2023/03/10 07:04:42;;;;;;;5.70;5.15;;;;;;;13.22;65.14;94222.97;4978905;28;20706;-70
2023/03/10 07:07:09;;;;;;;9.45;4.50;;;;;;;13.21;65.57;94226.41;4976829;28;20733;-71
2023/03/10 07:09:35;;;;;;;5.63;5.07;;;;;;;13.23;65.50;94211.84;4976715;28;20320;-69
2023/03/10 07:12:02;;;;;;;10.73;3.92;;;;;;;13.32;65.19;94223.28;4974891;28;20296;-70
2023/03/10 07:14:29;;;;;;;10.13;4.60;;;;;;;13.52;64.60;94214.44;4974818;28;20675;-70
2023/03/10 07:16:56;;;;;;;11.50;4.80;;;;;;;13.90;63.79;94215.53;4976429;28;20379;-69
2023/03/10 07:19:23;;;;;;;9.75;4.63;;;;;;;14.53;61.24;94207.47;4975916;28;20200;-70
2023/03/10 07:21:51;;;;;;;5.75;4.25;;;;;;;15.13;59.41;94206.19;4975896;28;20975;-70
2023/03/10 07:24:18;;;;;;;7.75;4.70;;;;;;;15.58;58.09;94204.97;4976038;28;20302;-70
2023/03/10 07:26:45;;;;;;;9.98;4.18;;;;;;;15.90;56.69;94195.09;4974420;28;20245;-71
2023/03/10 07:29:11;;;;;;;6.85;4.93;;;;;;;16.08;55.77;94188.75;4975963;28;20367;-71
2023/03/10 07:31:38;;;;;;;4.90;4.32;;;;;;;16.22;55.60;94191.16;4974888;28;20212;-70
2023/03/10 07:34:05;;;;;;;10.23;5.10;;;;;;;16.14;55.04;94198.56;4975549;28;20236;-70
2023/03/10 07:36:31;;;;;;;7.80;4.50;;;;;;;15.76;56.45;94200.34;4975402;28;20210;-69
2023/03/10 07:38:59;;;;;;;7.82;5.68;;;;;;;15.74;56.74;94194.53;4975529;28;20201;-68
2023/03/10 07:41:26;;;;;;;12.52;5.53;;;;;;;16.14;56.51;94192.59;4975672;28;20334;-70
2023/03/10 07:43:54;;;;;;;6.15;5.18;;;;;;;17.33;53.01;94188.31;4975919;28;20213;-72
2023/03/10 07:46:21;;;;;;;8.07;5.38;;;;;;;18.42;49.97;94174.94;4973926;28;20328;-71
2023/03/10 07:48:48;;;;;;;12.15;5.65;;;;;;;18.90;47.86;94165.13;4976111;28;20319;-70
2023/03/10 07:51:15;;;;;;;9.40;6.13;;;;;;;18.79;48.08;94160.84;4975332;28;20370;-71
2023/03/10 07:53:42;;;;;;;9.32;6.70;;;;;;;18.31;49.58;94147.50;4974910;28;20411;-70
2023/03/10 07:56:11;;;;;;;7.20;5.50;;;;;;;18.32;49.21;94155.09;4975207;28;20200;-71
2023/03/10 07:58:39;;;;;;;10.38;5.57;;;;;;;18.02;49.88;94152.34;4976198;28;20326;-71
2023/03/10 08:01:07;;;;;;;8.13;5.20;;;;;;;17.88;50.21;94148.25;4975540;28;21376;-69
2023/03/10 08:03:34;;;;;;;7.30;5.05;;;;;;;17.80;50.94;94142.06;4975834;28;20301;-71
2023/03/10 08:06:04;;;;;;;12.73;5.65;;;;;;;17.50;51.06;94151.13;4972461;28;20232;-70
2023/03/10 08:08:31;;;;;;;7.35;5.75;;;;;;;16.40;54.02;94149.78;4975047;28;20256;-70
2023/03/10 08:11:02;;;;;;;11.05;5.07;;;;;;;16.10;55.27;94145.88;4972664;28;20769;-70
2023/03/10 08:13:31;;;;;;;6.10;4.30;;;;;;;15.84;56.26;94139.97;4973703;28;20220;-72
2023/03/10 08:15:58;;;;;;;5.10;4.70;;;;;;;15.54;57.34;94131.81;4973402;28;20360;-71
2023/03/10 08:18:25;;;;;;;8.57;4.75;;;;;;;15.32;57.81;94129.88;4973647;28;20744;-71
2023/03/10 08:20:52;;;;;;;7.35;5.18;;;;;;;15.13;58.70;94116.63;4973658;28;20689;-71
2023/03/10 08:23:19;;;;;;;8.80;4.95;;;;;;;15.20;58.70;94112.75;4973537;28;20209;-71
2023/03/10 08:25:45;;;;;;;5.30;4.75;;;;;;;15.43;57.97;94108.66;4971256;28;20324;-70
2023/03/10 08:28:12;;;;;;;7.07;5.20;;;;;;;15.49;58.08;94114.19;4968798;28;20704;-73
2023/03/10 08:30:41;;;;;;;14.68;7.28;;;;;;;15.89;57.00;94098.66;4974472;28;20934;-71
2023/03/10 08:33:08;;;;;;;15.23;6.18;;;;;;;16.22;55.88;94088.63;4974846;28;20292;-70
2023/03/10 08:35:36;;;;;;;6.10;4.75;;;;;;;16.32;55.21;94079.38;4977874;28;20521;-71
2023/03/10 08:38:04;;;;;;;52.78;10.30;;;;;;;16.65;54.53;94080.44;4977405;28;20295;-70
2023/03/10 08:40:31;;;;;;;18.25;6.82;;;;;;;16.81;54.33;94088.69;4977051;28;20303;-69
2023/03/10 08:42:58;;;;;;;8.77;4.82;;;;;;;17.02;53.53;94078.56;4974957;28;20530;-71
2023/03/10 08:45:25;;;;;;;7.88;4.60;;;;;;;17.53;52.17;94084.09;4976447;28;20292;-70
2023/03/10 08:47:53;;;;;;;6.80;5.25;;;;;;;17.67;51.49;94086.47;4976726;28;21039;-71
2023/03/10 08:50:19;;;;;;;9.02;5.05;;;;;;;17.73;51.60;94067.19;4975535;28;20477;-71
2023/03/10 08:52:46;;;;;;;6.93;5.07;;;;;;;18.63;49.28;94058.31;4976770;28;20304;-71
2023/03/10 08:55:14;;;;;;;6.10;4.55;;;;;;;19.11;48.08;94062.16;4976021;28;20244;-70
2023/03/10 08:57:41;;;;;;;5.85;5.03;;;;;;;19.23;47.35;94064.53;4975817;28;20360;-70
2023/03/10 09:00:11;;;;;;;8.38;5.30;;;;;;;19.72;46.68;94055.28;4976420;28;20264;-70
2023/03/10 09:02:38;;;;;;;6.57;5.30;;;;;;;20.94;44.10;94047.13;4974752;28;20204;-70
2023/03/10 09:05:07;;;;;;;9.13;5.13;;;;;;;21.38;42.61;94054.28;4975715;28;20209;-71
2023/03/10 09:07:33;;;;;;;6.72;5.68;;;;;;;20.54;43.45;94049.91;4975614;28;21533;-71
2023/03/10 09:10:00;;;;;;;7.57;4.45;;;;;;;19.55;46.04;94054.13;4975100;28;20320;-71
2023/03/10 09:12:27;;;;;;;5.75;3.90;;;;;;;18.55;47.82;94042.66;4974788;28;20248;-70
2023/03/10 09:14:54;;;;;;;6.88;4.88;;;;;;;17.77;50.17;94048.03;4975931;28;20224;-70
2023/03/10 09:17:20;;;;;;;5.07;4.68;;;;;;;17.24;51.83;94052.09;4975598;28;20243;-70
2023/03/10 09:19:47;;;;;;;5.85;4.85;;;;;;;16.87;53.08;94049.72;4976337;28;20229;-70
2023/03/10 09:22:15;;;;;;;4.95;4.55;;;;;;;16.71;53.72;94038.13;4974151;28;20204;-71
2023/03/10 09:24:42;;;;;;;6.45;5.28;;;;;;;16.80;53.84;94027.22;4976823;28;20322;-70
2023/03/10 09:27:09;;;;;;;18.83;7.07;;;;;;;16.84;54.01;94021.72;4975359;28;20331;-70
2023/03/10 09:29:35;;;;;;;11.40;5.72;;;;;;;17.01;53.75;94025.59;4975271;28;20256;-70
2023/03/10 09:32:03;;;;;;;9.27;6.13;;;;;;;17.01;53.26;94028.16;4975765;28;20243;-71
2023/03/10 09:34:30;;;;;;;7.25;5.57;;;;;;;16.75;54.05;94031.84;4974996;28;20209;-70
2023/03/10 09:36:56;;;;;;;8.90;5.00;;;;;;;16.83;53.83;94019.25;4976575;28;20300;-70
2023/03/10 09:39:24;;;;;;;10.30;5.85;;;;;;;16.76;54.21;94020.66;4975266;28;20307;-72
2023/03/10 09:42:14;;;;;;;6.13;5.47;;;;;;;16.89;53.88;94027.31;4975808;28;20300;-70
2023/03/10 09:44:51;;;;;;;9.52;5.95;;;;;;;16.82;53.65;94018.47;4974143;28;20296;-70
2023/03/10 09:47:28;;;;;;;7.75;5.78;;;;;;;16.81;53.89;94009.13;4975368;28;20213;-70
2023/03/10 09:50:10;;;;;;;7.25;6.10;;;;;;;16.76;54.02;94005.28;4975693;28;20235;-69
2023/03/10 09:52:44;;;;;;;6.80;5.82;;;;;;;16.67;54.44;94001.63;4976102;28;20216;-71
2023/03/10 09:55:20;;;;;;;8.88;5.53;;;;;;;16.58;54.67;94013.34;4974681;28;20300;-69
2023/03/10 09:57:48;;;;;;;15.95;6.65;;;;;;;16.45;54.98;93991.28;4974822;28;20200;-71
2023/03/10 10:00:21;;;;;;;9.38;5.38;;;;;;;16.51;55.20;94003.66;4974715;28;20652;-70
2023/03/10 10:02:51;;;;;;;6.55;5.90;;;;;;;16.34;55.50;93995.44;4974190;28;20236;-70
2023/03/10 10:05:23;;;;;;;7.95;6.65;;;;;;;16.26;55.86;94005.44;4973865;28;20909;-69
2023/03/10 10:07:54;;;;;;;10.65;6.10;;;;;;;16.21;56.54;93999.84;4976370;28;20322;-70
2023/03/10 10:10:26;;;;;;;11.77;6.55;;;;;;;16.07;56.67;93986.41;4974889;28;20307;-70
2023/03/10 10:12:54;;;;;;;8.55;7.13;;;;;;;15.91;57.09;93973.84;4974924;28;20209;-71
2023/03/10 10:15:23;;;;;;;8.80;7.28;;;;;;;15.97;57.17;93981.09;4973310;28;21855;-72
2023/03/10 10:18:03;;;;;;;13.45;7.05;;;;;;;15.95;57.45;93965.00;4974709;28;20689;-68
2023/03/10 10:20:34;;;;;;;12.98;6.97;;;;;;;15.87;57.81;93968.13;4973648;28;20240;-68
2023/03/10 10:23:01;;;;;;;9.75;6.63;;;;;;;16.01;57.85;93959.47;4975563;28;20298;-70
2023/03/10 10:25:31;;;;;;;9.27;7.40;;;;;;;16.02;57.83;93968.78;4973793;28;20303;-70
2023/03/10 10:28:01;;;;;;;12.23;7.53;;;;;;;16.12;57.88;93958.66;4974253;28;20687;-70
2023/03/10 10:30:31;;;;;;;8.20;7.00;;;;;;;16.20;57.75;93967.44;4974364;28;20311;-69
2023/03/10 10:32:59;;;;;;;14.98;7.53;;;;;;;16.32;57.47;93965.75;4974692;28;22005;-69
2023/03/10 10:35:28;;;;;;;23.23;8.68;;;;;;;16.45;57.10;93960.50;4973815;28;20302;-69
2023/03/10 10:38:00;;;;;;;15.82;7.93;;;;;;;16.56;56.96;93960.56;4974560;28;20292;-70
2023/03/10 10:40:32;;;;;;;11.38;6.47;;;;;;;16.43;57.11;93962.38;4974495;28;20389;-70
2023/03/10 10:43:04;;;;;;;10.75;6.57;;;;;;;16.47;57.05;93959.47;4973233;28;20212;-69
2023/03/10 10:45:35;;;;;;;14.05;6.20;;;;;;;16.36;56.68;93958.63;4973374;28;20222;-70
2023/03/10 10:48:02;;;;;;;12.63;6.28;;;;;;;16.13;57.03;93942.34;4972619;28;20301;-70
2023/03/10 10:50:30;;;;;;;12.98;6.93;;;;;;;16.18;57.92;93955.66;4975735;28;20426;-69
2023/03/10 10:53:19;;;;;;;10.13;7.28;;;;;;;16.05;58.31;93947.25;4974323;28;20300;-70
2023/03/10 10:55:48;;;;;;;12.02;7.35;;;;;;;16.21;58.21;93953.69;4973325;28;20197;-70
2023/03/10 10:58:29;;;;;;;11.15;5.75;;;;;;;16.42;58.04;93942.78;4974131;28;20209;-70
2023/03/10 11:00:58;;;;;;;4.90;4.50;;;;;;;16.26;56.35;93946.50;4973717;28;20208;-69
2023/03/10 11:03:28;;;;;;;9.15;6.63;;;;;;;16.08;59.39;93952.97;4973059;28;20295;-70
2023/03/10 11:05:55;;;;;;;14.15;7.78;;;;;;;15.91;59.76;93938.78;4972691;28;20202;-71
2023/03/10 11:08:36;;;;;;;15.52;6.72;;;;;;;15.93;59.94;93936.13;4972576;28;20423;-71
2023/03/10 11:11:19;;;;;;;10.48;6.82;;;;;;;15.92;62.70;93925.06;4975576;28;20232;-70
2023/03/10 11:14:04;;;;;;;14.38;7.40;;;;;;;15.94;62.62;93940.31;4973557;28;20853;-70
2023/03/10 11:16:41;;;;;;;12.98;7.20;;;;;;;15.97;63.84;93924.72;4974326;28;20212;-70
2023/03/10 11:19:17;;;;;;;14.57;7.07;;;;;;;16.02;63.11;93902.16;4972946;28;20303;-70
2023/03/10 11:21:48;;;;;;;10.10;7.20;;;;;;;15.95;63.13;93891.53;4973989;28;20296;-69
2023/03/10 11:24:24;;;;;;;12.77;8.25;;;;;;;15.95;63.77;93880.47;4972609;28;20367;-69
2023/03/10 11:26:57;;;;;;;10.00;8.13;;;;;;;15.96;62.67;93893.16;4973065;28;20311;-72
2023/03/10 11:29:38;;;;;;;155.82;18.90;;;;;;;15.98;62.75;93870.00;4972392;28;20781;-69
2023/03/10 11:32:18;;;;;;;14.98;9.20;;;;;;;16.06;64.13;93856.63;4972211;28;20213;-69
2023/03/10 11:34:48;;;;;;;17.52;9.43;;;;;;;15.90;63.78;93862.84;4973725;28;20240;-71